sensor_id;sensor_type;location;lat;lon;timestamp;pressure;altitude;pressure_sealevel;temperature;humidity
57086;BME280;42964;42.910;23.792;2023-05-21T00:02:39;97616.81;;;12.25;98.34
57086;BME280;42964;42.910;23.792;2023-05-21T00:07:39;97632.41;;;12.22;98.42
57086;BME280;42964;42.910;23.792;2023-05-21T00:12:38;97602.16;;;12.15;97.89
57086;BME280;42964;42.910;23.792;2023-05-21T00:17:39;97620.34;;;12.18;99.06
57086;BME280;42964;42.910;23.792;2023-05-21T00:22:38;97617.84;;;12.06;98.89
57086;BME280;42964;42.910;23.792;2023-05-21T00:27:37;97610.97;;;11.99;98.93
57086;BME280;42964;42.910;23.792;2023-05-21T00:32:36;97610.16;;;11.94;99.68
57086;BME280;42964;42.910;23.792;2023-05-21T00:37:35;97604.94;;;11.94;99.38
57086;BME280;42964;42.910;23.792;2023-05-21T00:42:34;97617.91;;;11.98;98.95
57086;BME280;42964;42.910;23.792;2023-05-21T00:47:38;97611.78;;;12.04;98.74
57086;BME280;42964;42.910;23.792;2023-05-21T00:52:37;97610.94;;;12.05;98.53
57086;BME280;42964;42.910;23.792;2023-05-21T00:57:39;97497.13;;;11.39;98.77
57086;BME280;42964;42.910;23.792;2023-05-21T01:02:40;97594.38;;;12.12;99.18
57086;BME280;42964;42.910;23.792;2023-05-21T01:07:39;97596.09;;;12.15;99.24
57086;BME280;42964;42.910;23.792;2023-05-21T01:12:41;97607.28;;;12.23;99.44
57086;BME280;42964;42.910;23.792;2023-05-21T01:17:42;97596.78;;;12.34;99.41
57086;BME280;42964;42.910;23.792;2023-05-21T01:27:48;97501.16;;;11.72;100.00
57086;BME280;42964;42.910;23.792;2023-05-21T01:32:57;97596.78;;;12.32;100.00
57086;BME280;42964;42.910;23.792;2023-05-21T01:43:21;97573.69;;;12.00;99.34
57086;BME280;42964;42.910;23.792;2023-05-21T01:48:22;97609.94;;;12.17;99.58
57086;BME280;42964;42.910;23.792;2023-05-21T01:53:23;97602.22;;;12.09;100.00
57086;BME280;42964;42.910;23.792;2023-05-21T01:58:22;97603.09;;;12.09;100.00
57086;BME280;42964;42.910;23.792;2023-05-21T02:03:24;97604.75;;;12.18;99.78
57086;BME280;42964;42.910;23.792;2023-05-21T02:08:23;97584.78;;;12.16;99.42
57086;BME280;42964;42.910;23.792;2023-05-21T02:13:23;97546.84;;;11.96;99.83
57086;BME280;42964;42.910;23.792;2023-05-21T02:18:22;97592.50;;;12.25;100.00
57086;BME280;42964;42.910;23.792;2023-05-21T02:23:21;97588.13;;;12.32;100.00
57086;BME280;42964;42.910;23.792;2023-05-21T02:28:20;97596.78;;;12.35;99.98
57086;BME280;42964;42.910;23.792;2023-05-21T02:33:19;97588.91;;;12.41;100.00
57086;BME280;42964;42.910;23.792;2023-05-21T02:38:19;97583.63;;;12.46;99.74
57086;BME280;42964;42.910;23.792;2023-05-21T02:43:20;97584.53;;;12.45;99.58
57086;BME280;42964;42.910;23.792;2023-05-21T02:48:19;97588.78;;;12.52;99.52
57086;BME280;42964;42.910;23.792;2023-05-21T02:53:18;97593.09;;;12.56;99.37
57086;BME280;42964;42.910;23.792;2023-05-21T02:58:17;97589.59;;;12.59;99.51
57086;BME280;42964;42.910;23.792;2023-05-21T03:03:16;97580.81;;;12.64;99.27
57086;BME280;42964;42.910;23.792;2023-05-21T03:08:14;97591.22;;;12.67;99.45
57086;BME280;42964;42.910;23.792;2023-05-21T03:13:14;97585.91;;;12.75;99.60
57086;BME280;42964;42.910;23.792;2023-05-21T03:18:13;97591.88;;;12.85;99.52
57086;BME280;42964;42.910;23.792;2023-05-21T03:23:12;97586.66;;;12.86;99.54
57086;BME280;42964;42.910;23.792;2023-05-21T03:28:11;97590.09;;;12.88;99.84
57086;BME280;42964;42.910;23.792;2023-05-21T03:33:11;97587.44;;;12.90;99.78
57086;BME280;42964;42.910;23.792;2023-05-21T03:38:10;97590.00;;;12.96;99.78
57086;BME280;42964;42.910;23.792;2023-05-21T03:43:08;97586.53;;;12.94;99.12
57086;BME280;42964;42.910;23.792;2023-05-21T03:48:07;97583.88;;;12.99;98.94
57086;BME280;42964;42.910;23.792;2023-05-21T03:53:06;97550.25;;;12.82;98.77
57086;BME280;42964;42.910;23.792;2023-05-21T03:58:05;97578.66;;;13.00;99.25
57086;BME280;42964;42.910;23.792;2023-05-21T04:03:04;97581.22;;;13.03;98.63
57086;BME280;42964;42.910;23.792;2023-05-21T04:08:04;97581.28;;;12.99;98.96
57086;BME280;42964;42.910;23.792;2023-05-21T04:13:04;97576.06;;;12.99;98.84
57086;BME280;42964;42.910;23.792;2023-05-21T04:18:04;97584.69;;;13.02;98.51
57086;BME280;42964;42.910;23.792;2023-05-21T04:23:02;97584.00;;;12.88;98.50
57086;BME280;42964;42.910;23.792;2023-05-21T04:28:01;97595.31;;;12.87;98.72
57086;BME280;42964;42.910;23.792;2023-05-21T04:33:01;97595.19;;;12.96;99.20
57086;BME280;42964;42.910;23.792;2023-05-21T04:38:00;97600.19;;;13.11;98.44
57086;BME280;42964;42.910;23.792;2023-05-21T04:42:59;97596.47;;;13.28;98.49
57086;BME280;42964;42.910;23.792;2023-05-21T04:47:59;97597.25;;;13.38;97.90
57086;BME280;42964;42.910;23.792;2023-05-21T04:52:58;97595.50;;;13.35;97.95
57086;BME280;42964;42.910;23.792;2023-05-21T04:57:57;97589.25;;;13.48;97.30
57086;BME280;42964;42.910;23.792;2023-05-21T05:02:55;97595.28;;;13.52;97.18
57086;BME280;42964;42.910;23.792;2023-05-21T05:07:54;97590.03;;;13.53;96.04
57086;BME280;42964;42.910;23.792;2023-05-21T05:12:54;97595.63;;;13.27;96.34
57086;BME280;42964;42.910;23.792;2023-05-21T05:17:53;97594.84;;;13.21;97.18
57086;BME280;42964;42.910;23.792;2023-05-21T05:22:54;97593.13;;;13.20;96.56
57086;BME280;42964;42.910;23.792;2023-05-21T05:27:52;97606.13;;;13.23;96.83
57086;BME280;42964;42.910;23.792;2023-05-21T05:32:51;97596.66;;;13.15;97.21
57086;BME280;42964;42.910;23.792;2023-05-21T05:37:50;97598.28;;;13.26;96.11
57086;BME280;42964;42.910;23.792;2023-05-21T05:42:49;97596.31;;;13.40;95.05
57086;BME280;42964;42.910;23.792;2023-05-21T05:47:50;97608.28;;;13.53;95.60
57086;BME280;42964;42.910;23.792;2023-05-21T05:52:48;97612.50;;;13.64;94.86
57086;BME280;42964;42.910;23.792;2023-05-21T05:57:48;97601.88;;;13.74;94.68
57086;BME280;42964;42.910;23.792;2023-05-21T06:02:47;97593.81;;;13.91;94.54
57086;BME280;42964;42.910;23.792;2023-05-21T06:07:46;97591.75;;;14.09;94.15
57086;BME280;42964;42.910;23.792;2023-05-21T06:12:45;97597.69;;;14.17;93.94
57086;BME280;42964;42.910;23.792;2023-05-21T06:17:44;97581.75;;;14.34;92.56
57086;BME280;42964;42.910;23.792;2023-05-21T06:22:43;97580.66;;;14.46;91.22
57086;BME280;42964;42.910;23.792;2023-05-21T06:27:41;97573.41;;;14.60;91.44
57086;BME280;42964;42.910;23.792;2023-05-21T06:32:41;97584.53;;;14.68;91.85
57086;BME280;42964;42.910;23.792;2023-05-21T06:37:40;97529.88;;;14.59;91.06
57086;BME280;42964;42.910;23.792;2023-05-21T06:42:40;97538.94;;;14.86;90.17
57086;BME280;42964;42.910;23.792;2023-05-21T06:47:39;97577.44;;;15.18;88.74
57086;BME280;42964;42.910;23.792;2023-05-21T06:52:38;97572.63;;;15.39;87.49
57086;BME280;42964;42.910;23.792;2023-05-21T06:57:37;97576.59;;;15.55;86.61
57086;BME280;42964;42.910;23.792;2023-05-21T07:02:36;97575.53;;;15.62;86.71
57086;BME280;42964;42.910;23.792;2023-05-21T07:07:35;97576.06;;;15.77;86.83
57086;BME280;42964;42.910;23.792;2023-05-21T07:12:34;97570.81;;;16.13;85.39
57086;BME280;42964;42.910;23.792;2023-05-21T07:17:33;97572.44;;;16.49;85.46
57086;BME280;42964;42.910;23.792;2023-05-21T07:22:32;97582.34;;;17.30;85.02
57086;BME280;42964;42.910;23.792;2023-05-21T07:27:31;97580.22;;;17.98;82.04
57086;BME280;42964;42.910;23.792;2023-05-21T07:32:30;97548.53;;;17.76;77.87
57086;BME280;42964;42.910;23.792;2023-05-21T07:37:29;97574.38;;;17.90;76.85
57086;BME280;42964;42.910;23.792;2023-05-21T07:42:29;97539.91;;;17.72;78.02
57086;BME280;42964;42.910;23.792;2023-05-21T07:47:28;97560.94;;;17.99;75.80
57086;BME280;42964;42.910;23.792;2023-05-21T07:52:27;97564.28;;;18.29;76.12
57086;BME280;42964;42.910;23.792;2023-05-21T07:57:27;97556.41;;;18.78;76.31
57086;BME280;42964;42.910;23.792;2023-05-21T08:02:27;97553.38;;;19.34;72.27
57086;BME280;42964;42.910;23.792;2023-05-21T08:07:26;97547.88;;;19.40;68.54
57086;BME280;42964;42.910;23.792;2023-05-21T08:12:25;97522.78;;;19.54;69.46
57086;BME280;42964;42.910;23.792;2023-05-21T08:17:24;97536.44;;;19.63;69.25
57086;BME280;42964;42.910;23.792;2023-05-21T08:22:23;97532.47;;;19.75;66.48
57086;BME280;42964;42.910;23.792;2023-05-21T08:27:22;97522.06;;;19.72;64.72
57086;BME280;42964;42.910;23.792;2023-05-21T08:32:21;97532.00;;;19.86;59.90
57086;BME280;42964;42.910;23.792;2023-05-21T08:37:20;97536.31;;;19.89;60.77
57086;BME280;42964;42.910;23.792;2023-05-21T08:42:33;97487.38;;;19.83;63.40
57086;BME280;42964;42.910;23.792;2023-05-21T08:47:35;97521.94;;;20.16;58.76
57086;BME280;42964;42.910;23.792;2023-05-21T08:52:37;97511.06;;;19.83;57.88
57086;BME280;42964;42.910;23.792;2023-05-21T08:57:36;97521.50;;;19.64;59.85
57086;BME280;42964;42.910;23.792;2023-05-21T09:02:38;97520.06;;;19.57;58.91
57086;BME280;42964;42.910;23.792;2023-05-21T09:07:46;97515.38;;;19.41;58.56
57086;BME280;42964;42.910;23.792;2023-05-21T09:12:46;97508.09;;;19.48;60.66
57086;BME280;42964;42.910;23.792;2023-05-21T09:17:46;97490.03;;;19.39;61.70
57086;BME280;42964;42.910;23.792;2023-05-21T09:22:47;97500.56;;;19.39;60.08
57086;BME280;42964;42.910;23.792;2023-05-21T09:27:46;97499.78;;;19.59;60.52
57086;BME280;42964;42.910;23.792;2023-05-21T09:32:51;97463.72;;;19.39;63.75
57086;BME280;42964;42.910;23.792;2023-05-21T09:37:51;97495.53;;;19.55;61.49
57086;BME280;42964;42.910;23.792;2023-05-21T09:42:53;97477.84;;;19.16;62.44
57086;BME280;42964;42.910;23.792;2023-05-21T09:47:54;97490.91;;;19.17;64.49
57086;BME280;42964;42.910;23.792;2023-05-21T09:52:54;97481.00;;;19.24;63.74
57086;BME280;42964;42.910;23.792;2023-05-21T09:57:53;97478.59;;;19.40;63.91
57086;BME280;42964;42.910;23.792;2023-05-21T10:02:57;97476.09;;;19.59;63.18
57086;BME280;42964;42.910;23.792;2023-05-21T10:08:00;97458.34;;;20.05;63.75
57086;BME280;42964;42.910;23.792;2023-05-21T10:13:03;97462.44;;;19.92;61.77
57086;BME280;42964;42.910;23.792;2023-05-21T10:18:04;97454.50;;;20.12;62.70
57086;BME280;42964;42.910;23.792;2023-05-21T10:23:04;97442.31;;;20.49;62.18
57086;BME280;42964;42.910;23.792;2023-05-21T10:28:04;97446.19;;;20.99;61.32
57086;BME280;42964;42.910;23.792;2023-05-21T10:33:04;97435.47;;;21.38;59.62
57086;BME280;42964;42.910;23.792;2023-05-21T10:38:05;97419.41;;;21.60;57.85
57086;BME280;42964;42.910;23.792;2023-05-21T10:59:50;97410.06;;;21.88;50.83
57086;BME280;42964;42.910;23.792;2023-05-21T11:04:57;97397.72;;;21.88;51.93
57086;BME280;42964;42.910;23.792;2023-05-21T11:10:35;97388.03;;;22.22;52.22
57086;BME280;42964;42.910;23.792;2023-05-21T11:21:11;97361.53;;;23.03;48.06
57086;BME280;42964;42.910;23.792;2023-05-21T11:26:10;97354.94;;;22.94;46.73
57086;BME280;42964;42.910;23.792;2023-05-21T11:36:20;97337.22;;;22.33;42.78
57086;BME280;42964;42.910;23.792;2023-05-21T11:41:20;97340.97;;;22.60;40.94
57086;BME280;42964;42.910;23.792;2023-05-21T11:46:19;97329.03;;;22.37;39.21
57086;BME280;42964;42.910;23.792;2023-05-21T11:51:19;97337.72;;;22.71;39.51
57086;BME280;42964;42.910;23.792;2023-05-21T11:56:18;97341.81;;;23.23;39.42
57086;BME280;42964;42.910;23.792;2023-05-21T12:01:22;97347.75;;;23.12;39.08
57086;BME280;42964;42.910;23.792;2023-05-21T12:06:25;97293.91;;;22.51;40.59
57086;BME280;42964;42.910;23.792;2023-05-21T12:11:24;97346.91;;;22.01;42.45
57086;BME280;42964;42.910;23.792;2023-05-21T12:16:25;97317.88;;;21.66;43.39
57086;BME280;42964;42.910;23.792;2023-05-21T12:21:27;97333.06;;;21.95;41.44
57086;BME280;42964;42.910;23.792;2023-05-21T12:26:27;97346.09;;;22.16;42.50
57086;BME280;42964;42.910;23.792;2023-05-21T12:31:28;97342.44;;;22.34;44.68
57086;BME280;42964;42.910;23.792;2023-05-21T12:36:29;97338.22;;;22.94;43.21
57086;BME280;42964;42.910;23.792;2023-05-21T12:41:31;97334.00;;;23.36;42.53
57086;BME280;42964;42.910;23.792;2023-05-21T12:46:30;97338.75;;;23.45;41.91
57086;BME280;42964;42.910;23.792;2023-05-21T12:51:38;97334.25;;;23.17;41.42
57086;BME280;42964;42.910;23.792;2023-05-21T12:56:44;97319.56;;;23.11;42.51
57086;BME280;42964;42.910;23.792;2023-05-21T13:01:46;97322.97;;;23.13;40.15
57086;BME280;42964;42.910;23.792;2023-05-21T13:06:45;97317.94;;;23.39;40.10
57086;BME280;42964;42.910;23.792;2023-05-21T13:11:44;97302.84;;;23.55;39.60
57086;BME280;42964;42.910;23.792;2023-05-21T13:16:45;97271.28;;;23.52;39.55
57086;BME280;42964;42.910;23.792;2023-05-21T13:21:44;97308.06;;;24.00;38.20
57086;BME280;42964;42.910;23.792;2023-05-21T13:26:43;97311.78;;;23.83;37.35
57086;BME280;42964;42.910;23.792;2023-05-21T13:31:43;97293.00;;;24.00;35.98
57086;BME280;42964;42.910;23.792;2023-05-21T13:36:42;97284.50;;;23.95;36.03
57086;BME280;42964;42.910;23.792;2023-05-21T13:41:41;97288.97;;;23.52;37.30
57086;BME280;42964;42.910;23.792;2023-05-21T13:46:41;97297.97;;;23.19;39.20
57086;BME280;42964;42.910;23.792;2023-05-21T13:51:40;97275.38;;;22.97;38.97
57086;BME280;42964;42.910;23.792;2023-05-21T13:56:39;97276.56;;;23.08;37.57
57086;BME280;42964;42.910;23.792;2023-05-21T14:01:38;97278.75;;;23.15;38.17
57086;BME280;42964;42.910;23.792;2023-05-21T14:06:37;97262.50;;;23.21;37.64
57086;BME280;42964;42.910;23.792;2023-05-21T14:11:36;97277.94;;;23.43;37.59
57086;BME280;42964;42.910;23.792;2023-05-21T14:16:35;97278.66;;;23.47;36.59
57086;BME280;42964;42.910;23.792;2023-05-21T14:21:34;97267.03;;;23.50;37.09
57086;BME280;42964;42.910;23.792;2023-05-21T14:26:34;97258.47;;;23.44;34.87
57086;BME280;42964;42.910;23.792;2023-05-21T14:31:34;97255.72;;;23.32;33.98
57086;BME280;42964;42.910;23.792;2023-05-21T14:36:34;97232.16;;;23.13;32.82
57086;BME280;42964;42.910;23.792;2023-05-21T14:41:37;97221.06;;;23.06;33.41
57086;BME280;42964;42.910;23.792;2023-05-21T14:46:37;97243.22;;;23.19;32.46
57086;BME280;42964;42.910;23.792;2023-05-21T14:51:36;97243.56;;;23.13;32.26
57086;BME280;42964;42.910;23.792;2023-05-21T14:56:35;97259.06;;;23.05;32.46
57086;BME280;42964;42.910;23.792;2023-05-21T15:01:34;97223.69;;;22.92;31.70
57086;BME280;42964;42.910;23.792;2023-05-21T15:06:33;97261.31;;;22.97;32.12
57086;BME280;42964;42.910;23.792;2023-05-21T15:11:32;97263.34;;;23.22;32.91
57086;BME280;42964;42.910;23.792;2023-05-21T15:16:31;97261.06;;;22.86;32.38
57086;BME280;42964;42.910;23.792;2023-05-21T15:21:30;97239.47;;;22.93;33.55
57086;BME280;42964;42.910;23.792;2023-05-21T15:26:29;97264.97;;;23.25;34.87
57086;BME280;42964;42.910;23.792;2023-05-21T15:31:30;97240.56;;;23.05;35.59
57086;BME280;42964;42.910;23.792;2023-05-21T15:36:29;97262.88;;;23.15;35.97
57086;BME280;42964;42.910;23.792;2023-05-21T15:41:28;97258.34;;;23.32;36.58
57086;BME280;42964;42.910;23.792;2023-05-21T15:46:27;97254.88;;;23.46;35.76
57086;BME280;42964;42.910;23.792;2023-05-21T15:51:26;97248.19;;;23.54;34.83
57086;BME280;42964;42.910;23.792;2023-05-21T15:56:25;97253.00;;;23.48;35.54
57086;BME280;42964;42.910;23.792;2023-05-21T16:01:25;97270.13;;;23.42;35.69
57086;BME280;42964;42.910;23.792;2023-05-21T16:06:24;97268.28;;;23.28;36.15
57086;BME280;42964;42.910;23.792;2023-05-21T16:11:24;97278.97;;;22.96;36.69
57086;BME280;42964;42.910;23.792;2023-05-21T16:16:23;97257.19;;;22.77;37.02
57086;BME280;42964;42.910;23.792;2023-05-21T16:21:22;97240.31;;;22.48;36.92
57086;BME280;42964;42.910;23.792;2023-05-21T16:26:21;97282.94;;;22.73;37.15
57086;BME280;42964;42.910;23.792;2023-05-21T16:31:20;97288.41;;;22.70;37.54
57086;BME280;42964;42.910;23.792;2023-05-21T16:36:20;97296.53;;;22.67;38.14
57086;BME280;42964;42.910;23.792;2023-05-21T16:41:19;97304.63;;;22.64;38.54
57086;BME280;42964;42.910;23.792;2023-05-21T16:46:19;97300.47;;;22.60;40.37
57086;BME280;42964;42.910;23.792;2023-05-21T16:51:18;97300.88;;;22.52;41.09
57086;BME280;42964;42.910;23.792;2023-05-21T16:56:17;97303.00;;;22.46;41.09
57086;BME280;42964;42.910;23.792;2023-05-21T17:01:16;97309.94;;;22.32;40.91
57086;BME280;42964;42.910;23.792;2023-05-21T17:06:15;97310.25;;;22.10;40.86
57086;BME280;42964;42.910;23.792;2023-05-21T17:11:15;97321.44;;;21.82;40.79
57086;BME280;42964;42.910;23.792;2023-05-21T17:16:14;97327.16;;;21.57;41.16
57086;BME280;42964;42.910;23.792;2023-05-21T17:21:13;97330.59;;;21.42;43.10
57086;BME280;42964;42.910;23.792;2023-05-21T17:26:12;97334.38;;;21.01;44.20
57086;BME280;42964;42.910;23.792;2023-05-21T17:31:12;97346.13;;;20.39;45.66
57086;BME280;42964;42.910;23.792;2023-05-21T17:36:11;97375.69;;;20.07;47.09
57086;BME280;42964;42.910;23.792;2023-05-21T17:41:10;97397.72;;;19.65;46.75
57086;BME280;42964;42.910;23.792;2023-05-21T17:46:09;97415.09;;;19.07;49.13
57086;BME280;42964;42.910;23.792;2023-05-21T17:51:08;97435.59;;;18.75;50.23
57086;BME280;42964;42.910;23.792;2023-05-21T17:56:08;97462.69;;;18.30;53.46
57086;BME280;42964;42.910;23.792;2023-05-21T18:01:08;97460.94;;;18.05;59.83
57086;BME280;42964;42.910;23.792;2023-05-21T18:06:08;97432.22;;;17.75;65.86
57086;BME280;42964;42.910;23.792;2023-05-21T18:11:07;97425.50;;;17.42;67.20
57086;BME280;42964;42.910;23.792;2023-05-21T18:16:06;97429.25;;;17.33;68.47
57086;BME280;42964;42.910;23.792;2023-05-21T18:21:05;97437.69;;;17.16;69.75
57086;BME280;42964;42.910;23.792;2023-05-21T18:26:04;97435.78;;;16.95;70.93
57086;BME280;42964;42.910;23.792;2023-05-21T18:31:03;97435.16;;;16.86;71.35
57086;BME280;42964;42.910;23.792;2023-05-21T18:36:02;97452.53;;;16.59;73.29
57086;BME280;42964;42.910;23.792;2023-05-21T18:41:01;97459.53;;;16.29;75.59
57086;BME280;42964;42.910;23.792;2023-05-21T18:46:02;97457.22;;;16.18;77.72
57086;BME280;42964;42.910;23.792;2023-05-21T18:51:01;97464.31;;;15.83;78.77
57086;BME280;42964;42.910;23.792;2023-05-21T18:56:00;97465.97;;;15.86;78.70
57086;BME280;42964;42.910;23.792;2023-05-21T19:00:59;97478.00;;;15.93;78.77
57086;BME280;42964;42.910;23.792;2023-05-21T19:05:58;97485.72;;;15.98;79.08
57086;BME280;42964;42.910;23.792;2023-05-21T19:10:57;97500.53;;;15.97;78.58
57086;BME280;42964;42.910;23.792;2023-05-21T19:15:56;97507.41;;;16.01;78.60
57086;BME280;42964;42.910;23.792;2023-05-21T19:20:56;97508.25;;;16.02;78.65
57086;BME280;42964;42.910;23.792;2023-05-21T19:25:55;97512.59;;;16.04;79.23
57086;BME280;42964;42.910;23.792;2023-05-21T19:30:54;97479.44;;;15.69;79.97
57086;BME280;42964;42.910;23.792;2023-05-21T19:35:53;97523.59;;;15.83;80.69
57086;BME280;42964;42.910;23.792;2023-05-21T19:40:52;97527.22;;;15.77;82.15
57086;BME280;42964;42.910;23.792;2023-05-21T19:45:50;97529.97;;;15.71;82.56
57086;BME280;42964;42.910;23.792;2023-05-21T19:50:49;97507.09;;;15.45;82.50
57086;BME280;42964;42.910;23.792;2023-05-21T19:55:48;97528.72;;;15.52;82.83
57086;BME280;42964;42.910;23.792;2023-05-21T20:00:48;97536.75;;;15.44;83.49
57086;BME280;42964;42.910;23.792;2023-05-21T20:05:48;97525.66;;;15.34;83.12
57086;BME280;42964;42.910;23.792;2023-05-21T20:10:47;97535.50;;;15.23;83.48
57086;BME280;42964;42.910;23.792;2023-05-21T20:15:46;97533.31;;;15.03;83.85
57086;BME280;42964;42.910;23.792;2023-05-21T20:20:45;97529.22;;;14.91;84.27
57086;BME280;42964;42.910;23.792;2023-05-21T20:25:44;97515.91;;;14.61;85.72
57086;BME280;42964;42.910;23.792;2023-05-21T20:30:54;97535.84;;;14.66;86.08
57086;BME280;42964;42.910;23.792;2023-05-21T20:35:57;97520.50;;;14.50;85.90
57086;BME280;42964;42.910;23.792;2023-05-21T20:40:56;97501.69;;;14.33;86.08
57086;BME280;42964;42.910;23.792;2023-05-21T20:45:55;97499.34;;;14.20;85.68
57086;BME280;42964;42.910;23.792;2023-05-21T20:50:58;97537.28;;;14.37;86.58
57086;BME280;42964;42.910;23.792;2023-05-21T20:55:57;97547.00;;;14.30;86.51
57086;BME280;42964;42.910;23.792;2023-05-21T21:00:59;97543.69;;;14.22;87.02
57086;BME280;42964;42.910;23.792;2023-05-21T21:05:59;97543.81;;;14.14;87.17
57086;BME280;42964;42.910;23.792;2023-05-21T21:10:58;97541.44;;;14.02;87.51
57086;BME280;42964;42.910;23.792;2023-05-21T21:15:57;97551.94;;;13.97;87.85
57086;BME280;42964;42.910;23.792;2023-05-21T21:20:56;97545.94;;;13.94;88.74
57086;BME280;42964;42.910;23.792;2023-05-21T21:25:55;97551.25;;;13.89;88.74
57086;BME280;42964;42.910;23.792;2023-05-21T21:30:54;97552.84;;;13.96;88.81
57086;BME280;42964;42.910;23.792;2023-05-21T21:35:53;97538.28;;;13.83;88.88
57086;BME280;42964;42.910;23.792;2023-05-21T21:40:52;97561.63;;;13.91;89.21
57086;BME280;42964;42.910;23.792;2023-05-21T21:45:52;97558.22;;;13.87;89.65
57086;BME280;42964;42.910;23.792;2023-05-21T21:50:50;97560.78;;;13.89;89.33
57086;BME280;42964;42.910;23.792;2023-05-21T21:55:49;97553.19;;;13.76;89.55
57086;BME280;42964;42.910;23.792;2023-05-21T22:00:49;97554.03;;;13.77;90.22
57086;BME280;42964;42.910;23.792;2023-05-21T22:05:48;97560.06;;;13.81;89.87
57086;BME280;42964;42.910;23.792;2023-05-21T22:10:48;97555.72;;;13.81;90.06
57086;BME280;42964;42.910;23.792;2023-05-21T22:15:47;97534.97;;;13.75;89.64
57086;BME280;42964;42.910;23.792;2023-05-21T22:20:47;97558.31;;;13.83;89.78
57086;BME280;42964;42.910;23.792;2023-05-21T22:25:46;97552.25;;;13.79;90.15
57086;BME280;42964;42.910;23.792;2023-05-21T22:30:45;97551.44;;;13.77;89.77
57086;BME280;42964;42.910;23.792;2023-05-21T22:35:43;97544.59;;;13.71;90.49
57086;BME280;42964;42.910;23.792;2023-05-21T22:40:42;97547.50;;;13.50;91.32
57086;BME280;42964;42.910;23.792;2023-05-21T22:45:41;97550.97;;;13.50;92.19
57086;BME280;42964;42.910;23.792;2023-05-21T22:50:41;97549.34;;;13.45;91.94
57086;BME280;42964;42.910;23.792;2023-05-21T22:55:40;97504.34;;;13.32;91.97
57086;BME280;42964;42.910;23.792;2023-05-21T23:00:40;97544.09;;;13.46;91.86
57086;BME280;42964;42.910;23.792;2023-05-21T23:05:38;97543.38;;;13.36;91.92
57086;BME280;42964;42.910;23.792;2023-05-21T23:10:37;97538.28;;;13.29;91.87
57086;BME280;42964;42.910;23.792;2023-05-21T23:15:36;97547.88;;;13.25;92.18
57086;BME280;42964;42.910;23.792;2023-05-21T23:20:36;97510.88;;;13.03;92.00
57086;BME280;42964;42.910;23.792;2023-05-21T23:25:38;97538.41;;;13.20;92.19
57086;BME280;42964;42.910;23.792;2023-05-21T23:30:36;97538.44;;;13.18;92.52
57086;BME280;42964;42.910;23.792;2023-05-21T23:35:35;97528.88;;;13.19;92.44
57086;BME280;42964;42.910;23.792;2023-05-21T23:40:34;97532.38;;;13.16;92.60
57086;BME280;42964;42.910;23.792;2023-05-21T23:45:33;97470.38;;;12.81;92.35
57086;BME280;42964;42.910;23.792;2023-05-21T23:50:32;97538.03;;;12.87;95.49
57086;BME280;42964;42.910;23.792;2023-05-21T23:55:31;97532.03;;;12.80;96.06
